SVR2145 UUBW-UBBB
Flight info
| Callsign | SVR2145 |
|---|---|
| Flight time | N/A |
| Altitude | 33000 |
| Route | LINRU2B LINRU T614 OSPER T828 OLBEG N72 WGD A927 SL A964 NOKLI N72 BISNA/N0452F330 N72 NOBVA |
| Aircraft | A321/M-SDFGJ1IYRW/LB1 |
Departure
| Time | 2026-04-29 12:09 |
|---|---|
| Airport | Zhukovsky International Airport (UUBW) |
Arrival
| Time | N/A |
|---|---|
| Airport | Heydar Aliyev International Airport (UBBB) |
| Time | Latitude | Longitude | Altitude | Speed | Heading |
|---|---|---|---|---|---|
| 2026-04-29 11:36 | 55.56349 | 38.12051 | 397 ft | 0 kts | 221° |
| 2026-04-29 11:57 | 55.56362 | 38.12068 | 394 ft | 2 kts | 217° |
| 2026-04-29 11:57 | 55.56375 | 38.12086 | 394 ft | 2 kts | 211° |
| 2026-04-29 11:57 | 55.56390 | 38.12100 | 391 ft | 2 kts | 198° |
| 2026-04-29 11:57 | 55.56406 | 38.12106 | 393 ft | 2 kts | 165° |
| 2026-04-29 11:58 | 55.56420 | 38.12093 | 395 ft | 2 kts | 133° |
| 2026-04-29 11:58 | 55.56424 | 38.12086 | 395 ft | 0 kts | 130° |
| 2026-04-29 12:01 | 55.56413 | 38.12110 | 393 ft | 7 kts | 130° |
| 2026-04-29 12:02 | 55.56358 | 38.12216 | 398 ft | 14 kts | 132° |
| 2026-04-29 12:02 | 55.56297 | 38.12334 | 397 ft | 12 kts | 132° |
| 2026-04-29 12:02 | 55.56227 | 38.12475 | 398 ft | 21 kts | 130° |
| 2026-04-29 12:02 | 55.56112 | 38.12695 | 398 ft | 25 kts | 125° |
| 2026-04-29 12:03 | 55.56026 | 38.12937 | 395 ft | 23 kts | 130° |
| 2026-04-29 12:03 | 55.55926 | 38.13139 | 397 ft | 21 kts | 131° |
| 2026-04-29 12:03 | 55.55847 | 38.13296 | 399 ft | 28 kts | 131° |
| 2026-04-29 12:03 | 55.55722 | 38.13547 | 395 ft | 27 kts | 131° |
| 2026-04-29 12:04 | 55.55599 | 38.13792 | 398 ft | 26 kts | 131° |
| 2026-04-29 12:04 | 55.55482 | 38.14024 | 398 ft | 24 kts | 133° |
| 2026-04-29 12:04 | 55.55371 | 38.14244 | 397 ft | 23 kts | 131° |
| 2026-04-29 12:04 | 55.55251 | 38.14482 | 394 ft | 30 kts | 131° |
| 2026-04-29 12:05 | 55.55116 | 38.14751 | 396 ft | 29 kts | 131° |
| 2026-04-29 12:05 | 55.54988 | 38.15007 | 398 ft | 27 kts | 131° |
| 2026-04-29 12:05 | 55.54866 | 38.15248 | 392 ft | 26 kts | 132° |
| 2026-04-29 12:05 | 55.54751 | 38.15479 | 399 ft | 24 kts | 131° |
| 2026-04-29 12:06 | 55.54641 | 38.15699 | 397 ft | 27 kts | 132° |
| 2026-04-29 12:06 | 55.54495 | 38.15987 | 399 ft | 32 kts | 131° |
| 2026-04-29 12:06 | 55.54352 | 38.16271 | 399 ft | 28 kts | 131° |
| 2026-04-29 12:06 | 55.54274 | 38.16446 | 397 ft | 12 kts | 106° |
| 2026-04-29 12:07 | 55.54308 | 38.16555 | 396 ft | 10 kts | 29° |
| 2026-04-29 12:07 | 55.54352 | 38.16632 | 398 ft | 8 kts | 36° |
| 2026-04-29 12:07 | 55.54401 | 38.16696 | 397 ft | 11 kts | 36° |
| 2026-04-29 12:07 | 55.54429 | 38.16688 | 396 ft | 0 kts | 310° |
| 2026-04-29 12:08 | 55.54443 | 38.16659 | 400 ft | 14 kts | 310° |
| 2026-04-29 12:09 | 55.54677 | 38.16193 | 396 ft | 86 kts | 311° |
| 2026-04-29 12:09 | 55.55211 | 38.15144 | 396 ft | 141 kts | 311° |
| 2026-04-29 12:09 | 55.55953 | 38.13651 | 563 ft | 171 kts | 312° |
| 2026-04-29 12:09 | 55.56731 | 38.12088 | 1284 ft | 169 kts | 312° |
| 2026-04-29 12:10 | 55.57527 | 38.10531 | 2071 ft | 170 kts | 314° |
| 2026-04-29 12:10 | 55.58327 | 38.08997 | 2659 ft | 169 kts | 313° |
| 2026-04-29 12:10 | 55.59119 | 38.07413 | 3134 ft | 174 kts | 311° |
| 2026-04-29 12:10 | 55.59837 | 38.05662 | 3605 ft | 181 kts | 294° |
| 2026-04-29 12:11 | 55.59905 | 38.03308 | 3763 ft | 209 kts | 257° |
| 2026-04-29 12:11 | 55.59047 | 38.01067 | 3911 ft | 239 kts | 226° |
| 2026-04-29 12:11 | 55.57675 | 37.99120 | 4200 ft | 262 kts | 218° |
| 2026-04-29 12:11 | 55.56155 | 37.97286 | 4909 ft | 268 kts | 217° |
| 2026-04-29 12:12 | 55.54560 | 37.95447 | 5653 ft | 271 kts | 216° |
| 2026-04-29 12:12 | 55.52859 | 37.94321 | 6376 ft | 278 kts | 188° |
| 2026-04-29 12:12 | 55.50844 | 37.94087 | 7128 ft | 280 kts | 187° |
| 2026-04-29 12:12 | 55.48904 | 37.93758 | 7838 ft | 283 kts | 188° |
| 2026-04-29 12:13 | 55.46966 | 37.93351 | 7866 ft | 281 kts | 190° |
| 2026-04-29 12:13 | 55.44979 | 37.92858 | 7931 ft | 280 kts | 191° |
| 2026-04-29 12:13 | 55.43078 | 37.92389 | 8042 ft | 281 kts | 191° |
| 2026-04-29 12:13 | 55.41161 | 37.91872 | 8036 ft | 280 kts | 192° |
| 2026-04-29 12:14 | 55.39241 | 37.91296 | 8040 ft | 280 kts | 192° |
| 2026-04-29 12:14 | 55.37254 | 37.91384 | 8184 ft | 289 kts | 165° |
| 2026-04-29 12:14 | 55.35347 | 37.92486 | 8998 ft | 289 kts | 164° |
| 2026-04-29 12:14 | 55.33418 | 37.93503 | 9738 ft | 291 kts | 166° |
| 2026-04-29 12:15 | 55.31469 | 37.94435 | 9975 ft | 292 kts | 167° |
| 2026-04-29 12:15 | 55.29478 | 37.95332 | 10005 ft | 291 kts | 168° |
| 2026-04-29 12:15 | 55.27537 | 37.96180 | 10005 ft | 291 kts | 168° |
| 2026-04-29 12:15 | 55.25569 | 37.97028 | 10007 ft | 291 kts | 168° |
| 2026-04-29 12:16 | 55.23584 | 37.97757 | 10008 ft | 289 kts | 177° |
| 2026-04-29 12:16 | 55.21603 | 37.97723 | 10012 ft | 286 kts | 191° |
| 2026-04-29 12:16 | 55.19673 | 37.96849 | 10540 ft | 286 kts | 203° |
| 2026-04-29 12:16 | 55.17786 | 37.95661 | 11146 ft | 290 kts | 202° |
| 2026-04-29 12:17 | 55.15877 | 37.94475 | 11738 ft | 294 kts | 201° |
| 2026-04-29 12:17 | 55.13905 | 37.93249 | 12297 ft | 299 kts | 201° |
| 2026-04-29 12:17 | 55.11932 | 37.92024 | 12861 ft | 303 kts | 201° |
| 2026-04-29 12:17 | 55.09893 | 37.90987 | 13375 ft | 310 kts | 191° |
| 2026-04-29 12:18 | 55.07688 | 37.90469 | 13541 ft | 328 kts | 188° |
| 2026-04-29 12:18 | 55.05416 | 37.89986 | 13935 ft | 336 kts | 187° |
| 2026-04-29 12:18 | 55.03080 | 37.89489 | 14416 ft | 340 kts | 187° |
| 2026-04-29 12:18 | 55.00706 | 37.89261 | 14925 ft | 344 kts | 177° |
| 2026-04-29 12:19 | 54.98321 | 37.89865 | 15456 ft | 347 kts | 165° |
| 2026-04-29 12:19 | 54.96014 | 37.91107 | 15980 ft | 349 kts | 161° |
| 2026-04-29 12:19 | 54.93678 | 37.92399 | 16506 ft | 353 kts | 161° |
| 2026-04-29 12:19 | 54.91324 | 37.93689 | 17033 ft | 356 kts | 161° |
| 2026-04-29 12:20 | 54.88950 | 37.94978 | 17564 ft | 359 kts | 161° |
| 2026-04-29 12:20 | 54.86523 | 37.96291 | 18074 ft | 362 kts | 161° |
| 2026-04-29 12:20 | 54.84127 | 37.97587 | 18542 ft | 365 kts | 161° |
| 2026-04-29 12:20 | 54.81660 | 37.98908 | 18712 ft | 378 kts | 161° |
| 2026-04-29 12:21 | 54.79106 | 38.00259 | 18840 ft | 390 kts | 162° |
| 2026-04-29 12:21 | 54.76480 | 38.01635 | 18963 ft | 400 kts | 162° |
| 2026-04-29 12:21 | 54.73779 | 38.03051 | 19092 ft | 410 kts | 162° |
| 2026-04-29 12:21 | 54.71016 | 38.04498 | 19226 ft | 418 kts | 162° |
| 2026-04-29 12:22 | 54.68214 | 38.05963 | 19500 ft | 422 kts | 162° |
| 2026-04-29 12:22 | 54.65400 | 38.07437 | 19838 ft | 424 kts | 161° |
| 2026-04-29 12:22 | 54.62573 | 38.08933 | 20211 ft | 426 kts | 161° |
| 2026-04-29 12:22 | 54.59727 | 38.10452 | 20559 ft | 429 kts | 161° |
| 2026-04-29 12:23 | 54.56872 | 38.11981 | 20923 ft | 431 kts | 161° |
| 2026-04-29 12:23 | 54.53957 | 38.13542 | 21308 ft | 433 kts | 161° |
| 2026-04-29 12:23 | 54.51073 | 38.15087 | 21663 ft | 435 kts | 161° |
| 2026-04-29 12:23 | 54.48171 | 38.16637 | 22034 ft | 438 kts | 161° |
| 2026-04-29 12:24 | 54.45254 | 38.18191 | 22403 ft | 440 kts | 161° |
| 2026-04-29 12:24 | 54.42321 | 38.19747 | 22764 ft | 442 kts | 161° |
| 2026-04-29 12:24 | 54.39371 | 38.21309 | 23103 ft | 445 kts | 160° |
| 2026-04-29 12:24 | 54.36404 | 38.22883 | 23426 ft | 447 kts | 160° |
| 2026-04-29 12:25 | 54.33472 | 38.24682 | 23751 ft | 447 kts | 153° |
| 2026-04-29 12:25 | 54.31594 | 38.26118 | 23936 ft | 448 kts | 153° |
| 2026-04-29 12:25 | 54.25831 | 38.30542 | 24532 ft | 451 kts | 153° |
| 2026-04-29 12:26 | 54.22955 | 38.32744 | 24832 ft | 453 kts | 153° |
| 2026-04-29 12:26 | 54.20076 | 38.34940 | 25127 ft | 455 kts | 153° |
| 2026-04-29 12:26 | 54.17189 | 38.37139 | 25414 ft | 456 kts | 154° |
| 2026-04-29 12:26 | 54.14281 | 38.39352 | 25719 ft | 458 kts | 154° |
| 2026-04-29 12:27 | 54.11364 | 38.41565 | 26011 ft | 459 kts | 154° |
| 2026-04-29 12:27 | 54.08440 | 38.43782 | 26286 ft | 461 kts | 154° |
| 2026-04-29 12:27 | 54.05497 | 38.46011 | 26572 ft | 462 kts | 154° |
| 2026-04-29 12:27 | 54.02515 | 38.48265 | 26838 ft | 463 kts | 154° |
| 2026-04-29 12:28 | 53.99595 | 38.50466 | 27102 ft | 465 kts | 154° |
| 2026-04-29 12:28 | 53.96640 | 38.52691 | 27333 ft | 466 kts | 154° |
| 2026-04-29 12:28 | 53.93666 | 38.54926 | 27574 ft | 467 kts | 154° |
| 2026-04-29 12:28 | 53.90652 | 38.57188 | 27798 ft | 468 kts | 154° |
| 2026-04-29 12:29 | 53.87680 | 38.59419 | 28001 ft | 469 kts | 154° |
| 2026-04-29 12:29 | 53.84724 | 38.61634 | 28237 ft | 469 kts | 154° |
| 2026-04-29 12:29 | 53.81711 | 38.63887 | 28541 ft | 467 kts | 155° |
| 2026-04-29 12:29 | 53.78769 | 38.66081 | 28819 ft | 466 kts | 155° |
| 2026-04-29 12:30 | 53.75767 | 38.68314 | 29107 ft | 465 kts | 155° |
| 2026-04-29 12:30 | 53.72804 | 38.70513 | 29379 ft | 465 kts | 155° |
| 2026-04-29 12:30 | 53.69882 | 38.72683 | 29647 ft | 464 kts | 155° |
| 2026-04-29 12:30 | 53.66898 | 38.74897 | 29916 ft | 463 kts | 155° |
| 2026-04-29 12:31 | 53.63982 | 38.77059 | 30145 ft | 463 kts | 155° |
| 2026-04-29 12:31 | 53.61037 | 38.79238 | 30362 ft | 462 kts | 155° |
| 2026-04-29 12:31 | 53.58092 | 38.81409 | 30538 ft | 462 kts | 155° |
| 2026-04-29 12:31 | 53.55139 | 38.83582 | 30728 ft | 462 kts | 156° |
| 2026-04-29 12:32 | 53.52188 | 38.85750 | 30923 ft | 462 kts | 156° |
| 2026-04-29 12:32 | 53.49245 | 38.87915 | 31113 ft | 462 kts | 156° |
| 2026-04-29 12:32 | 53.46306 | 38.90074 | 31325 ft | 461 kts | 156° |
| 2026-04-29 12:32 | 53.43360 | 38.92231 | 31524 ft | 460 kts | 157° |
| 2026-04-29 12:33 | 53.40419 | 38.94342 | 31724 ft | 460 kts | 158° |
| 2026-04-29 12:33 | 53.37466 | 38.96418 | 31913 ft | 459 kts | 158° |
| 2026-04-29 12:33 | 53.34507 | 38.98473 | 32115 ft | 459 kts | 159° |
| 2026-04-29 12:33 | 53.31562 | 39.00506 | 32311 ft | 458 kts | 159° |
| 2026-04-29 12:34 | 53.28622 | 39.02528 | 32504 ft | 457 kts | 159° |
| 2026-04-29 12:34 | 53.25678 | 39.04557 | 32695 ft | 457 kts | 159° |
| 2026-04-29 12:34 | 53.22745 | 39.06592 | 32879 ft | 456 kts | 159° |
| 2026-04-29 12:34 | 53.19814 | 39.08631 | 33060 ft | 456 kts | 159° |
| 2026-04-29 12:35 | 53.16890 | 39.10665 | 33113 ft | 453 kts | 159° |
| 2026-04-29 12:35 | 53.11088 | 39.14686 | 33106 ft | 451 kts | 159° |
| 2026-04-29 12:36 | 53.05286 | 39.18684 | 33107 ft | 450 kts | 159° |
| 2026-04-29 12:36 | 52.99493 | 39.22671 | 33113 ft | 450 kts | 159° |
| 2026-04-29 12:37 | 52.93703 | 39.26643 | 33119 ft | 450 kts | 159° |
| 2026-04-29 12:37 | 52.87917 | 39.30588 | 33126 ft | 449 kts | 160° |
| 2026-04-29 12:38 | 52.82133 | 39.34517 | 33132 ft | 449 kts | 160° |
| 2026-04-29 12:38 | 52.76352 | 39.38447 | 33136 ft | 449 kts | 160° |
| 2026-04-29 12:39 | 52.70576 | 39.42372 | 33137 ft | 449 kts | 160° |
| 2026-04-29 12:39 | 52.64788 | 39.46279 | 33136 ft | 448 kts | 160° |
| 2026-04-29 12:40 | 52.59013 | 39.50163 | 33135 ft | 448 kts | 160° |
| 2026-04-29 12:40 | 52.53242 | 39.54056 | 33135 ft | 448 kts | 160° |
| 2026-04-29 12:41 | 52.47465 | 39.57928 | 33135 ft | 447 kts | 160° |
| 2026-04-29 12:41 | 52.41734 | 39.61912 | 33122 ft | 448 kts | 158° |
| 2026-04-29 12:42 | 52.36155 | 39.66490 | 33115 ft | 449 kts | 155° |
| 2026-04-29 12:42 | 52.30634 | 39.71255 | 33114 ft | 448 kts | 155° |
| 2026-04-29 12:43 | 52.25081 | 39.75903 | 33119 ft | 448 kts | 156° |
| 2026-04-29 12:43 | 52.19503 | 39.80439 | 33117 ft | 447 kts | 157° |
| 2026-04-29 12:44 | 52.13923 | 39.84939 | 33124 ft | 447 kts | 157° |
| 2026-04-29 12:44 | 52.08351 | 39.89446 | 33121 ft | 447 kts | 157° |
| 2026-04-29 12:45 | 52.02788 | 39.93963 | 33122 ft | 446 kts | 157° |
| 2026-04-29 12:45 | 51.97251 | 39.98437 | 33124 ft | 446 kts | 158° |
| 2026-04-29 12:46 | 51.91690 | 40.02944 | 33132 ft | 446 kts | 158° |
| 2026-04-29 12:46 | 51.86138 | 40.07446 | 33138 ft | 446 kts | 158° |
| 2026-04-29 12:47 | 51.80582 | 40.11930 | 33140 ft | 445 kts | 158° |
| 2026-04-29 12:47 | 51.75041 | 40.16380 | 33140 ft | 445 kts | 158° |
| 2026-04-29 12:48 | 51.69650 | 40.21205 | 33143 ft | 448 kts | 152° |
| 2026-04-29 12:48 | 51.64413 | 40.26631 | 33143 ft | 448 kts | 152° |
| 2026-04-29 12:49 | 51.59167 | 40.32027 | 33144 ft | 447 kts | 153° |
| 2026-04-29 12:49 | 51.53922 | 40.37406 | 33152 ft | 447 kts | 153° |
| 2026-04-29 12:50 | 51.48671 | 40.42785 | 33155 ft | 446 kts | 153° |
| 2026-04-29 12:50 | 51.43439 | 40.48139 | 33151 ft | 446 kts | 153° |
| 2026-04-29 12:51 | 51.38212 | 40.53471 | 33158 ft | 445 kts | 153° |
| 2026-04-29 12:51 | 51.32993 | 40.58795 | 33154 ft | 446 kts | 150° |
| 2026-04-29 12:52 | 51.28423 | 40.65665 | 33148 ft | 455 kts | 139° |
| 2026-04-29 12:52 | 51.24105 | 40.73033 | 33147 ft | 454 kts | 139° |
| 2026-04-29 12:53 | 51.19763 | 40.80365 | 33145 ft | 454 kts | 139° |
| 2026-04-29 12:53 | 51.15424 | 40.87679 | 33142 ft | 454 kts | 139° |
| 2026-04-29 12:54 | 51.11085 | 40.94989 | 33140 ft | 454 kts | 139° |
| 2026-04-29 12:54 | 51.06775 | 41.02246 | 33132 ft | 454 kts | 140° |
| 2026-04-29 12:55 | 51.02428 | 41.09521 | 33135 ft | 454 kts | 140° |
| 2026-04-29 12:55 | 50.98080 | 41.16778 | 31566 ft | 454 kts | 130° |
| 2026-04-29 12:55 | 50.95904 | 41.20408 | 31730 ft | 453 kts | 134° |
| 2026-04-29 12:56 | 50.93721 | 41.24037 | 31924 ft | 454 kts | 134° |
| 2026-04-29 12:56 | 50.91541 | 41.27651 | 32131 ft | 454 kts | 134° |
| 2026-04-29 12:56 | 50.89362 | 41.31264 | 32329 ft | 454 kts | 134° |
| 2026-04-29 12:56 | 50.87185 | 41.34873 | 32531 ft | 453 kts | 134° |
| 2026-04-29 12:57 | 50.85005 | 41.38481 | 32730 ft | 453 kts | 134° |
| 2026-04-29 12:57 | 50.82825 | 41.42091 | 32932 ft | 453 kts | 134° |
| 2026-04-29 12:57 | 50.80641 | 41.45698 | 33006 ft | 456 kts | 134° |
| 2026-04-29 12:58 | 50.76224 | 41.52952 | 33020 ft | 458 kts | 134° |
| 2026-04-29 12:58 | 50.71824 | 41.60155 | 33022 ft | 458 kts | 134° |
| 2026-04-29 12:59 | 50.67405 | 41.67385 | 33020 ft | 457 kts | 134° |
| 2026-04-29 12:59 | 50.63731 | 41.73396 | 33021 ft | 457 kts | 134° |
| 2026-04-29 13:00 | 50.59319 | 41.80602 | 33021 ft | 457 kts | 134° |
| 2026-04-29 13:00 | 50.54891 | 41.87802 | 33020 ft | 457 kts | 134° |
| 2026-04-29 13:01 | 50.50472 | 41.94975 | 33021 ft | 457 kts | 134° |
| 2026-04-29 13:01 | 50.46044 | 42.02136 | 33018 ft | 457 kts | 134° |
| 2026-04-29 13:02 | 50.41605 | 42.09272 | 33018 ft | 457 kts | 134° |
| 2026-04-29 13:02 | 50.37192 | 42.16372 | 33018 ft | 457 kts | 134° |
| 2026-04-29 13:03 | 50.32665 | 42.23340 | 34531 ft | 454 kts | 143° |
| 2026-04-29 13:03 | 50.27952 | 42.29863 | 34525 ft | 451 kts | 146° |
| 2026-04-29 13:04 | 50.23198 | 42.36254 | 34520 ft | 451 kts | 146° |
| 2026-04-29 13:04 | 50.18485 | 42.42723 | 34517 ft | 451 kts | 145° |
| 2026-04-29 13:05 | 50.13807 | 42.49246 | 34508 ft | 451 kts | 144° |
| 2026-04-29 13:05 | 50.09137 | 42.55739 | 34498 ft | 449 kts | 145° |
| 2026-04-29 13:06 | 50.04487 | 42.62154 | 34490 ft | 449 kts | 145° |
| 2026-04-29 13:06 | 49.99798 | 42.68585 | 34488 ft | 448 kts | 146° |
| 2026-04-29 13:07 | 49.95119 | 42.74984 | 34478 ft | 448 kts | 146° |
| 2026-04-29 13:07 | 49.90421 | 42.81412 | 34467 ft | 447 kts | 146° |
| 2026-04-29 13:08 | 49.85756 | 42.87795 | 34460 ft | 446 kts | 146° |
| 2026-04-29 13:08 | 49.81127 | 42.94093 | 34453 ft | 445 kts | 146° |
| 2026-04-29 13:09 | 49.76465 | 43.00411 | 34446 ft | 444 kts | 146° |
| 2026-04-29 13:09 | 49.71809 | 43.06697 | 34438 ft | 443 kts | 147° |
| 2026-04-29 13:10 | 49.67184 | 43.12922 | 34434 ft | 443 kts | 147° |
| 2026-04-29 13:10 | 49.62541 | 43.19170 | 34428 ft | 442 kts | 147° |
| 2026-04-29 13:11 | 49.57913 | 43.25395 | 34420 ft | 442 kts | 147° |
| 2026-04-29 13:11 | 49.53283 | 43.31599 | 34411 ft | 441 kts | 147° |
| 2026-04-29 13:12 | 49.48650 | 43.37787 | 34403 ft | 440 kts | 147° |
| 2026-04-29 13:12 | 49.44020 | 43.43941 | 34395 ft | 440 kts | 147° |
| 2026-04-29 13:13 | 49.39387 | 43.50089 | 34387 ft | 439 kts | 147° |
| 2026-04-29 13:13 | 49.34754 | 43.56232 | 34375 ft | 439 kts | 147° |
| 2026-04-29 13:14 | 49.30169 | 43.62304 | 34373 ft | 438 kts | 147° |
| 2026-04-29 13:14 | 49.25542 | 43.68397 | 34367 ft | 438 kts | 147° |